Time;durP1;ratioP1;P1;durP2;ratioP2;P2;SDS_P1;SDS_P2;PMS_P1;PMS_P2;Temp;Humidity;BMP_temperature;BMP_pressure;BME280_temperature;BME280_humidity;BME280_pressure;Samples;Min_cycle;Max_cycle;Signal;HPM_P1;HPM_P2
2023/10/30 00:01:00;;;;;;;6.22;3.00;;;9.90;99.90;;;;;;5012680;28;20498;-63
2023/10/30 00:03:32;;;;;;;5.38;3.10;;;9.90;99.90;;;;;;5032991;28;20417;-63
2023/10/30 00:06:04;;;;;;;6.50;3.40;;;9.80;99.90;;;;;;5034590;28;20057;-63
2023/10/30 00:08:35;;;;;;;6.18;3.85;;;9.80;99.90;;;;;;5017369;28;20045;-63
2023/10/30 00:11:07;;;;;;;3.95;3.47;;;9.80;99.90;;;;;;5014845;28;20049;-63
2023/10/30 00:13:41;;;;;;;4.75;3.67;;;9.80;99.90;;;;;;5010421;28;20033;-63
2023/10/30 00:16:13;;;;;;;4.90;3.28;;;9.70;99.90;;;;;;5008151;28;20044;-64
2023/10/30 00:18:46;;;;;;;4.20;3.80;;;9.70;99.90;;;;;;5007327;28;20050;-64
2023/10/30 00:21:12;;;;;;;5.25;4.20;;;9.70;99.90;;;;;;5004915;28;20052;-64
2023/10/30 00:23:45;;;;;;;7.63;4.68;;;9.70;99.90;;;;;;5013100;28;20137;-63
2023/10/30 00:26:17;;;;;;;4.10;3.55;;;9.60;99.90;;;;;;5003501;28;20045;-63
2023/10/30 00:28:48;;;;;;;4.97;3.58;;;9.60;99.90;;;;;;5004726;28;20491;-64
2023/10/30 00:31:22;;;;;;;3.90;3.08;;;9.60;99.90;;;;;;5029601;28;20516;-63
2023/10/30 00:33:54;;;;;;;5.68;3.55;;;9.50;99.90;;;;;;5019688;28;20037;-63
2023/10/30 00:36:26;;;;;;;6.38;2.92;;;9.50;99.90;;;;;;5015190;28;20041;-63
2023/10/30 00:38:57;;;;;;;5.03;2.63;;;9.50;99.90;;;;;;5009581;28;20070;-63
2023/10/30 00:41:29;;;;;;;4.35;3.28;;;9.40;99.90;;;;;;5015353;28;20540;-63
2023/10/30 00:44:01;;;;;;;5.18;2.70;;;9.40;99.90;;;;;;5013494;28;20046;-63
2023/10/30 00:46:33;;;;;;;4.07;2.67;;;9.40;99.90;;;;;;5002638;28;20045;-64
2023/10/30 00:49:04;;;;;;;3.22;2.13;;;9.30;99.90;;;;;;5012437;28;20042;-63
2023/10/30 00:51:36;;;;;;;5.35;2.45;;;9.30;99.90;;;;;;5012282;28;20045;-64
2023/10/30 00:54:08;;;;;;;4.00;2.15;;;9.30;99.90;;;;;;5009303;28;20043;-63
2023/10/30 00:56:40;;;;;;;3.22;2.67;;;9.30;99.90;;;;;;5015208;28;20046;-63
2023/10/30 00:59:11;;;;;;;3.88;2.28;;;9.20;99.90;;;;;;5028916;28;20506;-63
2023/10/30 01:01:43;;;;;;;4.65;2.88;;;9.20;99.90;;;;;;5019830;28;20052;-63
2023/10/30 01:04:15;;;;;;;4.18;2.88;;;9.20;99.90;;;;;;5022323;28;20125;-63
2023/10/30 01:06:47;;;;;;;3.10;2.35;;;9.20;99.90;;;;;;5021578;28;20050;-63
2023/10/30 01:09:19;;;;;;;4.22;3.03;;;9.10;99.90;;;;;;5025946;28;20048;-63
2023/10/30 01:11:50;;;;;;;3.50;2.30;;;9.10;99.90;;;;;;5021830;28;20062;-63
2023/10/30 01:14:23;;;;;;;4.85;2.45;;;9.00;99.90;;;;;;5014164;28;20061;-63
2023/10/30 01:16:56;;;;;;;4.15;1.92;;;9.00;99.90;;;;;;5026499;28;20042;-63
2023/10/30 01:19:27;;;;;;;5.95;2.50;;;9.00;99.90;;;;;;5021785;28;20494;-63
2023/10/30 01:21:55;;;;;;;3.20;2.50;;;9.00;99.90;;;;;;5007977;28;20074;-63
2023/10/30 01:24:27;;;;;;;3.25;2.33;;;8.90;99.90;;;;;;5027847;28;20054;-63
2023/10/30 01:26:59;;;;;;;4.32;2.28;;;8.90;99.90;;;;;;5017426;28;20046;-63
2023/10/30 01:29:31;;;;;;;8.00;2.42;;;8.90;99.90;;;;;;5025586;28;20525;-64
2023/10/30 01:31:58;;;;;;;2.85;2.55;;;8.90;99.90;;;;;;5024491;28;20103;-63
2023/10/30 01:34:29;;;;;;;4.68;2.22;;;8.80;99.90;;;;;;5015939;28;20043;-63
2023/10/30 01:37:01;;;;;;;5.05;2.63;;;8.80;99.90;;;;;;5029067;28;20486;-63
2023/10/30 01:39:33;;;;;;;3.78;2.65;;;8.80;99.90;;;;;;5023504;28;20042;-63
2023/10/30 01:42:06;;;;;;;4.90;2.38;;;8.80;99.90;;;;;;5022092;28;20045;-63
2023/10/30 01:44:57;;;;;;;3.28;2.53;;;8.70;99.90;;;;;;5012248;28;20058;-63
2023/10/30 01:47:27;;;;;;;3.13;2.33;;;8.70;99.90;;;;;;5043488;28;20061;-63
2023/10/30 01:50:01;;;;;;;4.43;2.45;;;8.70;99.90;;;;;;5028727;28;20093;-63
2023/10/30 01:52:34;;;;;;;4.07;2.75;;;8.70;99.90;;;;;;5029925;28;20049;-63
2023/10/30 01:55:07;;;;;;;3.30;2.53;;;8.70;99.90;;;;;;5010479;28;20046;-63
2023/10/30 01:57:39;;;;;;;3.70;2.43;;;8.70;99.90;;;;;;5010679;28;20042;-64
2023/10/30 02:00:12;;;;;;;3.53;2.53;;;8.60;99.90;;;;;;5021524;28;20425;-64
2023/10/30 02:02:45;;;;;;;3.45;2.97;;;8.60;99.90;;;;;;5018378;28;20049;-63
2023/10/30 02:05:17;;;;;;;5.93;2.53;;;8.60;99.90;;;;;;5004584;28;20501;-63
2023/10/30 02:07:49;;;;;;;5.43;2.90;;;8.50;99.90;;;;;;5018721;28;20049;-63
2023/10/30 02:10:21;;;;;;;3.55;2.55;;;8.50;99.90;;;;;;5028025;28;20379;-63
2023/10/30 02:12:53;;;;;;;4.55;2.53;;;8.40;99.90;;;;;;5032358;28;20066;-63
2023/10/30 02:15:24;;;;;;;3.22;2.75;;;8.40;99.90;;;;;;4997823;28;20049;-63
2023/10/30 02:17:57;;;;;;;4.97;2.75;;;8.40;99.90;;;;;;5028957;28;20070;-63
2023/10/30 02:20:25;;;;;;;4.03;2.80;;;8.40;99.90;;;;;;5026944;28;20041;-63
2023/10/30 02:22:58;;;;;;;4.97;3.33;;;8.30;99.90;;;;;;5028910;28;20037;-63
2023/10/30 02:25:34;;;;;;;2.97;2.60;;;8.30;99.90;;;;;;5026921;28;20053;-64
2023/10/30 02:28:07;;;;;;;3.15;2.50;;;8.30;99.90;;;;;;5026364;28;20144;-63
2023/10/30 02:30:38;;;;;;;4.82;2.85;;;8.30;99.90;;;;;;5009696;28;20045;-63
2023/10/30 02:33:10;;;;;;;2.85;2.15;;;8.20;99.90;;;;;;5020396;28;20527;-63
2023/10/30 02:35:42;;;;;;;3.58;2.60;;;8.20;99.90;;;;;;5022539;28;20397;-63
2023/10/30 02:38:14;;;;;;;5.97;2.70;;;8.20;99.90;;;;;;5025540;28;20056;-63
2023/10/30 02:40:45;;;;;;;3.83;2.70;;;8.20;99.90;;;;;;5028217;28;20046;-64
2023/10/30 02:43:18;;;;;;;4.50;2.45;;;8.20;99.90;;;;;;5015079;28;20046;-63
2023/10/30 02:45:45;;;;;;;3.83;2.80;;;8.20;99.90;;;;;;5027254;28;20075;-63
2023/10/30 02:48:17;;;;;;;5.57;2.42;;;8.10;99.90;;;;;;5028862;28;20050;-63
2023/10/30 02:50:49;;;;;;;5.45;2.90;;;8.10;99.90;;;;;;4993380;28;20041;-63
2023/10/30 02:53:20;;;;;;;5.65;2.55;;;8.10;99.90;;;;;;5026074;28;20149;-63
2023/10/30 02:55:52;;;;;;;4.65;2.65;;;8.10;99.90;;;;;;5028923;28;20052;-63
2023/10/30 02:58:19;;;;;;;4.90;2.70;;;8.10;99.90;;;;;;5026858;28;20531;-64
2023/10/30 03:00:55;;;;;;;4.68;3.55;;;8.10;99.90;;;;;;5025708;28;20050;-64
2023/10/30 03:03:27;;;;;;;3.67;2.85;;;8.10;99.90;;;;;;5014850;28;20857;-63
2023/10/30 03:05:54;;;;;;;6.05;2.90;;;8.10;99.90;;;;;;5020439;28;20585;-63
2023/10/30 03:08:26;;;;;;;4.00;2.47;;;8.10;99.90;;;;;;5015763;28;20035;-63
2023/10/30 03:10:58;;;;;;;3.15;2.58;;;8.10;99.90;;;;;;5022621;28;20042;-63
2023/10/30 03:13:29;;;;;;;4.63;3.08;;;8.10;99.90;;;;;;5021913;28;20093;-63
2023/10/30 03:15:56;;;;;;;3.95;2.75;;;8.10;99.90;;;;;;5026811;28;20103;-63
2023/10/30 03:18:28;;;;;;;3.88;3.45;;;8.00;99.90;;;;;;5027868;28;20092;-63
2023/10/30 03:21:00;;;;;;;3.80;2.70;;;8.00;99.90;;;;;;5010567;28;20044;-64
2023/10/30 03:23:32;;;;;;;3.80;3.28;;;8.10;99.90;;;;;;5029814;28;20045;-63
2023/10/30 03:26:04;;;;;;;4.90;2.75;;;8.00;99.90;;;;;;5013426;28;20050;-64
2023/10/30 03:28:31;;;;;;;5.57;2.88;;;8.00;99.90;;;;;;5032552;28;20132;-64
2023/10/30 03:31:07;;;;;;;5.70;2.70;;;8.00;99.90;;;;;;4997566;28;20064;-63
2023/10/30 03:33:34;;;;;;;4.32;2.97;;;8.00;99.90;;;;;;5030923;28;20469;-64
2023/10/30 03:36:06;;;;;;;4.65;2.75;;;8.00;99.90;;;;;;5030999;28;20083;-63
2023/10/30 03:38:39;;;;;;;4.13;2.65;;;8.00;99.90;;;;;;5016006;28;20226;-64
2023/10/30 03:41:11;;;;;;;3.70;3.03;;;8.00;99.90;;;;;;5020055;28;20051;-64
2023/10/30 03:43:46;;;;;;;5.20;2.75;;;7.90;99.90;;;;;;5027651;28;20111;-63
2023/10/30 03:46:13;;;;;;;5.50;3.10;;;7.90;99.90;;;;;;5024239;28;20034;-63
2023/10/30 03:48:45;;;;;;;4.43;2.90;;;7.90;99.90;;;;;;5019219;28;20060;-64
2023/10/30 03:51:17;;;;;;;4.28;3.47;;;7.90;99.90;;;;;;5029402;28;20046;-64
2023/10/30 03:53:49;;;;;;;4.60;3.55;;;7.90;99.90;;;;;;5030346;28;20048;-63
2023/10/30 03:56:21;;;;;;;6.10;3.97;;;7.90;99.90;;;;;;5018748;28;20131;-63
2023/10/30 03:58:52;;;;;;;8.38;4.88;;;7.90;99.90;;;;;;5007511;28;20088;-63
2023/10/30 04:01:24;;;;;;;9.27;3.90;;;7.90;99.90;;;;;;5017347;28;20525;-63
2023/10/30 04:03:56;;;;;;;6.05;4.10;;;7.90;99.90;;;;;;5017936;28;20041;-63
2023/10/30 04:06:28;;;;;;;4.78;3.67;;;7.90;99.90;;;;;;5029468;28;20058;-63
2023/10/30 04:09:03;;;;;;;5.30;4.20;;;7.80;99.90;;;;;;5018489;28;20139;-63
2023/10/30 04:11:35;;;;;;;5.00;4.03;;;7.90;99.90;;;;;;5022388;28;20412;-63
2023/10/30 04:14:06;;;;;;;8.18;4.63;;;7.80;99.90;;;;;;5036468;28;20413;-64
2023/10/30 04:16:38;;;;;;;6.35;4.10;;;7.80;99.90;;;;;;5021090;28;20038;-68
2023/10/30 04:19:10;;;;;;;5.70;4.47;;;7.80;99.90;;;;;;5018109;28;20042;-64
2023/10/30 04:21:42;;;;;;;4.45;2.83;;;7.80;99.90;;;;;;5017120;28;20111;-63
2023/10/30 04:24:14;;;;;;;5.28;4.22;;;8.00;99.90;;;;;;5028347;28;20046;-63
2023/10/30 04:26:45;;;;;;;6.57;4.85;;;8.20;99.90;;;;;;5032722;28;20061;-63
2023/10/30 04:29:18;;;;;;;34.40;15.63;;;8.30;99.90;;;;;;5032739;28;20053;-64
2023/10/30 04:31:49;;;;;;;68.47;30.65;;;8.30;99.90;;;;;;5029773;28;20053;-63
2023/10/30 04:34:21;;;;;;;60.92;28.65;;;8.30;99.90;;;;;;5027339;28;20048;-63
2023/10/30 04:36:54;;;;;;;37.70;21.52;;;8.30;99.90;;;;;;5016820;28;20065;-63
2023/10/30 04:39:25;;;;;;;14.02;8.90;;;8.30;99.90;;;;;;5020327;28;20151;-63
2023/10/30 04:41:57;;;;;;;14.18;8.70;;;8.20;99.90;;;;;;5027634;28;20053;-63
2023/10/30 04:44:29;;;;;;;12.00;7.03;;;8.20;99.90;;;;;;5020626;28;20052;-63
2023/10/30 04:47:01;;;;;;;31.80;20.85;;;8.20;99.90;;;;;;5024101;28;20132;-64
2023/10/30 04:49:35;;;;;;;23.63;14.43;;;8.20;99.90;;;;;;5020409;28;20133;-63
2023/10/30 04:52:03;;;;;;;13.55;11.25;;;8.10;99.90;;;;;;5017699;28;20589;-63
2023/10/30 04:54:35;;;;;;;16.77;14.10;;;7.90;99.90;;;;;;5029340;28;20045;-63
2023/10/30 04:57:07;;;;;;;15.55;13.70;;;7.70;99.90;;;;;;5010159;28;20048;-63
2023/10/30 04:59:38;;;;;;;14.35;11.95;;;7.60;99.90;;;;;;5026906;28;20038;-63
2023/10/30 05:02:10;;;;;;;14.02;11.07;;;7.50;99.90;;;;;;5018666;28;20050;-64
2023/10/30 05:04:42;;;;;;;11.25;8.95;;;7.50;99.90;;;;;;4997281;28;20074;-64
2023/10/30 05:07:14;;;;;;;11.57;8.88;;;7.40;99.90;;;;;;5017981;28;20056;-64
2023/10/30 05:09:46;;;;;;;9.43;7.07;;;7.40;99.90;;;;;;5018354;28;20042;-64
2023/10/30 05:12:20;;;;;;;8.65;5.32;;;7.30;99.90;;;;;;5019562;28;20383;-64
2023/10/30 05:14:48;;;;;;;6.75;5.20;;;7.30;99.90;;;;;;5019892;28;20045;-64
2023/10/30 05:17:21;;;;;;;13.75;5.88;;;7.30;99.90;;;;;;5016759;28;20039;-64
2023/10/30 05:19:53;;;;;;;9.45;5.70;;;7.30;99.90;;;;;;5005333;28;20050;-64
2023/10/30 05:22:27;;;;;;;7.95;4.95;;;7.30;99.90;;;;;;5025565;28;20060;-63
2023/10/30 05:24:59;;;;;;;;;;;7.20;99.90;;;;;;5013475;28;20499;-63
2023/10/30 05:27:31;;;;;;;7.88;5.35;;;7.20;99.90;;;;;;5023659;28;19929;-64
2023/10/30 05:29:59;;;;;;;8.60;5.15;;;7.20;99.90;;;;;;5011062;28;20041;-64
2023/10/30 05:32:31;;;;;;;8.10;5.50;;;7.20;99.90;;;;;;5022838;28;20040;-64
2023/10/30 05:35:03;;;;;;;7.15;4.97;;;7.20;99.90;;;;;;5015686;28;20049;-64
2023/10/30 05:37:35;;;;;;;8.50;5.53;;;7.10;99.90;;;;;;5016462;28;20037;-64
2023/10/30 05:40:07;;;;;;;7.80;5.82;;;7.20;99.90;;;;;;5018532;28;20037;-64
2023/10/30 05:42:39;;;;;;;21.23;6.60;;;7.20;99.90;;;;;;5018132;28;20040;-63
2023/10/30 05:45:07;;;;;;;6.97;5.50;;;7.50;99.90;;;;;;5025233;28;20510;-63
2023/10/30 05:47:39;;;;;;;15.38;5.53;;;7.50;99.90;;;;;;5018878;28;20045;-64
2023/10/30 05:50:07;;;;;;;9.85;5.32;;;7.40;99.90;;;;;;5029224;28;20049;-64
2023/10/30 05:52:33;;;;;;;9.32;5.32;;;7.40;99.90;;;;;;5026272;28;20049;-64
2023/10/30 05:55:07;;;;;;;11.75;5.43;;;7.20;99.90;;;;;;5025122;28;20053;-63
2023/10/30 05:57:41;;;;;;;14.82;4.55;;;7.20;99.90;;;;;;5012388;28;20043;-64
2023/10/30 06:00:14;;;;;;;12.23;5.32;;;7.10;99.90;;;;;;5027383;28;20042;-64
2023/10/30 06:02:45;;;;;;;8.20;4.85;;;7.00;99.90;;;;;;5013059;28;20042;-63
2023/10/30 06:05:18;;;;;;;6.60;4.97;;;7.00;99.90;;;;;;5012121;28;20057;-64
2023/10/30 06:07:50;;;;;;;5.43;4.25;;;6.90;99.90;;;;;;5028459;28;20060;-64
2023/10/30 06:10:23;;;;;;;5.93;4.50;;;6.90;99.90;;;;;;5024051;28;20149;-63
2023/10/30 06:12:50;;;;;;;7.72;4.50;;;6.90;99.90;;;;;;5016570;28;20053;-64
2023/10/30 06:15:17;;;;;;;5.47;4.75;;;6.80;99.90;;;;;;5020636;28;20034;-64
2023/10/30 06:17:49;;;;;;;6.25;5.53;;;6.80;99.90;;;;;;5020776;28;20506;-64
2023/10/30 06:20:16;;;;;;;5.25;4.70;;;6.80;99.90;;;;;;5022191;28;20037;-64
2023/10/30 06:22:48;;;;;;;5.53;4.25;;;6.80;99.90;;;;;;5024281;28;20046;-65
2023/10/30 06:25:15;;;;;;;6.95;5.57;;;6.80;99.90;;;;;;5026957;28;20037;-64
2023/10/30 06:27:42;;;;;;;11.30;6.07;;;6.80;99.90;;;;;;5028131;28;20049;-64
2023/10/30 06:30:14;;;;;;;11.45;7.88;;;6.80;99.90;;;;;;5023483;28;20070;-63
2023/10/30 06:32:42;;;;;;;13.90;8.63;;;6.90;99.90;;;;;;5007189;28;20042;-63
2023/10/30 06:35:13;;;;;;;10.77;8.02;;;6.90;99.90;;;;;;5009905;28;20064;-64
2023/10/30 06:37:45;;;;;;;9.75;7.25;;;6.90;99.90;;;;;;5015208;28;20037;-64
2023/10/30 06:40:12;;;;;;;9.55;7.25;;;6.90;99.90;;;;;;5024855;28;20040;-64
2023/10/30 06:42:44;;;;;;;19.55;9.43;;;6.90;99.90;;;;;;5020491;28;20050;-64
2023/10/30 06:45:11;;;;;;;16.38;8.80;;;7.00;99.90;;;;;;5021639;28;20046;-64
2023/10/30 06:47:38;;;;;;;17.73;8.63;;;7.00;99.90;;;;;;5021829;28;20425;-64
2023/10/30 06:50:10;;;;;;;8.95;6.90;;;7.00;99.90;;;;;;5019281;28;20046;-64
2023/10/30 06:52:37;;;;;;;8.25;5.90;;;7.10;99.90;;;;;;5024596;28;20137;-64
2023/10/30 06:55:09;;;;;;;8.88;5.07;;;7.10;99.90;;;;;;5017771;28;20128;-63
2023/10/30 06:57:41;;;;;;;5.93;5.07;;;7.10;99.90;;;;;;5015547;28;20056;-64
2023/10/30 07:00:08;;;;;;;6.03;4.63;;;7.10;99.90;;;;;;5024241;28;20034;-64
2023/10/30 07:02:41;;;;;;;5.13;4.60;;;7.10;99.90;;;;;;5011743;28;20099;-64
2023/10/30 07:05:13;;;;;;;5.85;4.93;;;7.10;99.90;;;;;;5025946;28;20049;-64
2023/10/30 07:07:45;;;;;;;7.95;4.85;;;7.10;99.90;;;;;;5013746;28;20046;-64
2023/10/30 07:10:17;;;;;;;6.45;5.07;;;7.10;99.90;;;;;;5028235;28;20049;-64
2023/10/30 07:12:49;;;;;;;18.85;6.38;;;7.20;99.90;;;;;;5023341;28;20041;-64
2023/10/30 07:15:21;;;;;;;6.28;5.32;;;7.30;99.90;;;;;;5018704;28;20472;-64
2023/10/30 07:17:55;;;;;;;6.75;5.40;;;7.30;99.90;;;;;;5020648;28;20068;-64
2023/10/30 07:20:22;;;;;;;5.22;4.45;;;7.40;99.90;;;;;;5020912;28;20037;-64
2023/10/30 07:22:54;;;;;;;6.72;4.45;;;7.40;99.90;;;;;;5018414;28;20136;-64
2023/10/30 07:25:21;;;;;;;6.82;4.60;;;7.40;99.90;;;;;;5022159;28;20049;-64
2023/10/30 07:27:53;;;;;;;7.80;4.23;;;7.40;99.90;;;;;;5009305;28;20085;-64
2023/10/30 07:30:26;;;;;;;5.90;4.20;;;7.50;99.90;;;;;;5025645;28;20067;-64
2023/10/30 07:32:58;;;;;;;5.55;4.38;;;7.50;99.90;;;;;;5011866;28;20143;-64
2023/10/30 07:35:25;;;;;;;6.35;4.85;;;7.50;99.90;;;;;;5004720;28;20048;-64
2023/10/30 07:37:57;;;;;;;6.03;5.05;;;7.60;99.90;;;;;;5016233;28;20064;-63
2023/10/30 07:40:29;;;;;;;6.13;5.53;;;7.60;99.90;;;;;;5024781;28;20033;-63
2023/10/30 07:43:01;;;;;;;7.97;5.85;;;7.70;99.90;;;;;;5016924;28;20042;-63
2023/10/30 07:45:40;;;;;;;7.25;5.72;;;7.80;99.90;;;;;;5020112;28;20060;-64
2023/10/30 07:48:12;;;;;;;9.60;6.72;;;7.90;99.90;;;;;;5017980;28;20487;-64
2023/10/30 07:50:43;;;;;;;10.40;7.32;;;8.00;99.90;;;;;;5021921;28;20045;-63
2023/10/30 07:53:15;;;;;;;22.33;13.32;;;8.10;99.90;;;;;;5014742;28;20049;-64
2023/10/30 07:55:50;;;;;;;20.65;14.95;;;8.20;99.90;;;;;;5016378;28;20140;-64
2023/10/30 07:58:23;;;;;;;21.77;12.52;;;8.30;99.90;;;;;;5017555;28;20092;-64
2023/10/30 08:00:55;;;;;;;16.70;11.10;;;8.40;99.90;;;;;;5031452;28;20053;-64
2023/10/30 08:03:27;;;;;;;13.95;8.63;;;8.40;99.90;;;;;;5033190;28;20513;-64
2023/10/30 08:05:57;;;;;;;9.95;7.40;;;8.50;99.90;;;;;;5033697;28;20049;-64
2023/10/30 08:08:29;;;;;;;11.65;6.78;;;8.50;99.90;;;;;;5032077;28;20088;-64
2023/10/30 08:11:00;;;;;;;8.38;7.43;;;8.60;99.90;;;;;;5030522;28;20055;-63
2023/10/30 08:13:33;;;;;;;9.38;5.95;;;8.70;99.90;;;;;;5019116;28;20045;-64
2023/10/30 08:16:00;;;;;;;8.18;6.43;;;8.80;99.90;;;;;;5030222;28;20037;-64
2023/10/30 08:18:32;;;;;;;12.60;6.60;;;8.80;99.90;;;;;;5016788;28;20061;-63
2023/10/30 08:21:04;;;;;;;11.50;7.15;;;8.90;99.90;;;;;;5021633;28;20042;-66
2023/10/30 08:23:32;;;;;;;8.50;6.45;;;9.00;99.90;;;;;;5020613;28;20042;-65
2023/10/30 08:26:05;;;;;;;10.93;7.53;;;9.00;99.90;;;;;;5010456;28;20046;-64
2023/10/30 08:28:37;;;;;;;13.55;9.38;;;9.10;99.90;;;;;;5018119;28;20060;-63
2023/10/30 08:31:09;;;;;;;11.00;8.70;;;9.20;99.90;;;;;;5028067;28;20042;-64
2023/10/30 08:33:36;;;;;;;12.35;9.45;;;9.30;99.90;;;;;;5014075;28;20034;-66
2023/10/30 08:36:08;;;;;;;9.73;7.22;;;9.40;99.90;;;;;;5031409;28;20044;-64
2023/10/30 08:38:40;;;;;;;7.43;5.45;;;9.50;99.90;;;;;;5027162;28;20042;-64
2023/10/30 08:41:16;;;;;;;7.45;5.15;;;9.60;99.90;;;;;;5026982;28;20065;-64
2023/10/30 08:43:48;;;;;;;10.75;6.95;;;9.80;99.90;;;;;;5009892;28;20096;-64
2023/10/30 08:46:18;;;;;;;8.82;6.47;;;10.00;99.90;;;;;;5016446;28;20048;-64
2023/10/30 08:48:51;;;;;;;8.02;7.03;;;10.10;99.90;;;;;;5017044;28;20054;-64
2023/10/30 08:51:23;;;;;;;11.30;7.72;;;10.20;99.90;;;;;;5014582;28;20076;-64
2023/10/30 08:53:55;;;;;;;11.02;8.15;;;10.30;99.90;;;;;;5015495;28;20068;-64
2023/10/30 08:56:22;;;;;;;10.05;6.65;;;10.40;99.90;;;;;;5014957;28;20045;-64
2023/10/30 08:58:56;;;;;;;9.32;6.45;;;10.60;99.90;;;;;;5009137;28;20052;-64
2023/10/30 09:01:28;;;;;;;18.10;9.65;;;10.80;99.90;;;;;;4998979;28;20042;-64
2023/10/30 09:04:00;;;;;;;6.80;4.35;;;10.90;99.90;;;;;;5005192;28;20053;-64
2023/10/30 09:06:32;;;;;;;9.00;5.13;;;11.20;99.90;;;;;;5007965;28;20617;-64
2023/10/30 09:09:05;;;;;;;32.42;21.52;;;11.40;99.90;;;;;;5001443;28;20042;-64
2023/10/30 09:11:32;;;;;;;14.82;8.57;;;11.60;99.90;;;;;;5015123;28;20041;-64
2023/10/30 09:14:04;;;;;;;8.00;6.88;;;11.60;99.90;;;;;;5008267;28;20544;-64
2023/10/30 09:16:31;;;;;;;4.32;3.20;;;11.80;99.90;;;;;;5018435;28;20042;-64
2023/10/30 09:19:03;;;;;;;2.67;2.30;;;11.90;99.90;;;;;;5013897;28;20034;-64
2023/10/30 09:21:35;;;;;;;3.22;2.08;;;12.00;99.90;;;;;;5014928;28;20046;-64
2023/10/30 09:24:07;;;;;;;2.67;1.80;;;12.00;99.90;;;;;;5000816;28;20049;-64
2023/10/30 09:26:34;;;;;;;10.38;2.20;;;12.10;99.90;;;;;;5018832;28;20034;-64
2023/10/30 09:29:02;;;;;;;3.22;2.13;;;12.20;99.90;;;;;;5012081;28;20041;-63
2023/10/30 09:31:34;;;;;;;2.30;1.90;;;12.30;99.90;;;;;;5011975;28;20053;-63
2023/10/30 09:34:06;;;;;;;4.50;3.33;;;12.40;99.90;;;;;;5004797;28;20501;-64
2023/10/30 09:36:38;;;;;;;4.05;2.03;;;12.50;99.90;;;;;;5004504;28;20037;-64
2023/10/30 09:39:09;;;;;;;3.72;1.52;;;12.60;99.90;;;;;;5000222;28;20046;-64
2023/10/30 09:41:43;;;;;;;2.33;1.70;;;12.60;99.90;;;;;;5011365;28;20046;-64
2023/10/30 09:44:16;;;;;;;3.60;2.38;;;12.70;99.90;;;;;;5007513;28;20082;-64
2023/10/30 09:46:49;;;;;;;2.38;1.75;;;12.70;99.90;;;;;;5019608;28;20041;-64
2023/10/30 09:49:22;;;;;;;2.10;1.45;;;12.80;99.90;;;;;;5007173;28;20073;-65
2023/10/30 09:51:56;;;;;;;4.68;2.53;;;12.80;99.90;;;;;;5018939;28;20068;-64
2023/10/30 09:54:29;;;;;;;11.93;2.30;;;12.90;99.90;;;;;;5005443;28;20054;-64
2023/10/30 09:56:59;;;;;;;3.97;1.92;;;12.90;99.90;;;;;;5012162;28;20128;-64
2023/10/30 09:59:33;;;;;;;3.58;1.88;;;12.90;99.90;;;;;;5018397;28;20520;-64
2023/10/30 10:02:05;;;;;;;;;;;13.00;99.90;;;;;;4999029;28;20049;-64
2023/10/30 10:04:38;;;;;;;6.30;1.67;;;13.10;99.90;;;;;;5006602;28;19968;-63
2023/10/30 10:07:12;;;;;;;3.63;2.00;;;13.10;99.90;;;;;;5005585;28;20096;-64
2023/10/30 10:09:57;;;;;;;2.83;1.85;;;13.10;99.90;;;;;;5002115;28;20429;-64
2023/10/30 10:12:30;;;;;;;2.70;1.60;;;13.20;99.90;;;;;;5021384;28;20042;-64
2023/10/30 10:15:08;;;;;;;3.65;1.52;;;13.20;99.90;;;;;;5003118;28;20045;-65
2023/10/30 10:17:42;;;;;;;2.53;1.92;;;13.30;99.90;;;;;;5013043;28;20037;-64
2023/10/30 10:20:14;;;;;;;6.43;2.08;;;13.40;99.90;;;;;;5014120;28;20099;-64
2023/10/30 10:22:47;;;;;;;4.63;2.40;;;13.40;99.90;;;;;;5017312;28;20136;-64
2023/10/30 10:25:19;;;;;;;10.60;4.20;;;13.40;99.90;;;;;;5012359;28;20049;-64
2023/10/30 10:27:52;;;;;;;3.85;2.50;;;13.50;99.90;;;;;;5009960;28;20097;-64
2023/10/30 10:30:25;;;;;;;3.80;2.40;;;13.50;99.90;;;;;;5019699;28;20893;-64
2023/10/30 10:32:57;;;;;;;6.22;4.22;;;13.50;99.90;;;;;;5008540;28;20052;-64
2023/10/30 10:35:31;;;;;;;4.95;4.45;;;13.60;99.90;;;;;;5011957;28;20045;-64
2023/10/30 10:38:10;;;;;;;4.22;3.42;;;13.60;99.90;;;;;;5001594;28;20511;-63
2023/10/30 10:40:44;;;;;;;5.13;3.40;;;13.70;99.90;;;;;;5007898;28;20138;-64
2023/10/30 10:43:19;;;;;;;4.43;2.67;;;13.70;99.90;;;;;;5004394;28;20053;-64
2023/10/30 10:45:52;;;;;;;5.00;2.60;;;13.70;99.90;;;;;;5016509;28;20473;-64
2023/10/30 10:48:25;;;;;;;;;;;13.80;99.90;;;;;;5028547;28;20046;-64
2023/10/30 10:50:55;;;;;;;4.82;1.90;;;13.80;99.90;;;;;;5019151;28;19931;-64
2023/10/30 10:53:28;;;;;;;2.80;1.20;;;13.80;99.90;;;;;;5010038;28;20117;-64
2023/10/30 10:56:04;;;;;;;3.08;1.70;;;13.80;99.90;;;;;;5014986;28;20056;-64
2023/10/30 10:58:46;;;;;;;3.85;1.63;;;13.80;99.90;;;;;;5012335;28;20041;-64
2023/10/30 11:01:19;;;;;;;1.92;1.52;;;13.80;99.90;;;;;;5028547;28;20132;-63
2023/10/30 11:03:51;;;;;;;2.38;1.55;;;13.90;99.90;;;;;;5010834;28;20140;-64
2023/10/30 11:06:33;;;;;;;3.80;2.35;;;13.90;99.90;;;;;;5008383;28;20414;-64
2023/10/30 11:09:21;;;;;;;3.20;1.40;;;13.90;99.90;;;;;;4994447;28;20038;-63
2023/10/30 11:11:52;;;;;;;4.15;1.90;;;14.00;99.90;;;;;;5006810;28;20053;-63
2023/10/30 11:14:48;;;;;;;3.20;1.65;;;14.00;99.90;;;;;;5009560;28;20091;-64
2023/10/30 11:17:20;;;;;;;3.97;1.80;;;14.10;99.90;;;;;;5017054;28;20054;-64
2023/10/30 11:20:10;;;;;;;6.35;2.55;;;14.10;99.90;;;;;;5015280;28;20042;-64
2023/10/30 11:22:43;;;;;;;2.50;1.98;;;14.20;99.90;;;;;;5018678;28;20429;-64
2023/10/30 11:25:34;;;;;;;;;;;14.10;99.90;;;;;;5022283;28;20042;-63
2023/10/30 11:28:07;;;;;;;3.15;1.83;;;14.10;99.90;;;;;;5022903;28;19921;-63
2023/10/30 11:30:44;;;;;;;4.20;2.22;;;14.10;99.90;;;;;;5021537;28;20125;-63
2023/10/30 11:33:25;;;;;;;2.42;2.00;;;14.10;99.90;;;;;;5023481;28;20073;-64
2023/10/30 11:36:15;;;;;;;2.95;2.22;;;14.10;99.90;;;;;;5029705;28;20050;-63
2023/10/30 11:39:08;;;;;;;3.13;2.40;;;14.00;99.90;;;;;;5021785;28;20068;-64
2023/10/30 11:41:44;;;;;;;6.30;2.28;;;14.00;99.90;;;;;;5022751;28;20096;-63
2023/10/30 11:44:16;;;;;;;2.65;2.33;;;14.00;99.90;;;;;;5023293;28;20064;-63
2023/10/30 11:46:53;;;;;;;4.38;2.60;;;14.00;99.90;;;;;;5014238;28;20520;-63
2023/10/30 11:49:21;;;;;;;3.70;2.20;;;14.00;99.90;;;;;;5015525;28;20046;-64
2023/10/30 11:51:51;;;;;;;5.22;3.38;;;13.90;99.90;;;;;;5019583;28;20042;-63
2023/10/30 11:54:33;;;;;;;5.28;3.58;;;13.90;99.90;;;;;;5035287;28;20049;-64
2023/10/30 11:57:06;;;;;;;3.72;2.80;;;13.90;99.90;;;;;;5019295;28;20096;-64
2023/10/30 11:59:38;;;;;;;5.07;3.27;;;13.80;99.90;;;;;;5023231;28;20042;-64
2023/10/30 12:02:10;;;;;;;4.03;3.03;;;13.80;99.90;;;;;;5016646;28;20034;-64
2023/10/30 12:04:45;;;;;;;7.53;3.10;;;13.80;99.90;;;;;;5021243;28;20033;-63
2023/10/30 12:07:16;;;;;;;5.15;2.80;;;13.80;99.90;;;;;;5014893;28;20100;-63
2023/10/30 12:09:43;;;;;;;4.70;2.78;;;13.80;99.90;;;;;;5014428;28;20037;-63
2023/10/30 12:12:15;;;;;;;3.35;2.42;;;13.80;99.90;;;;;;5017117;28;20073;-63
2023/10/30 12:14:47;;;;;;;3.30;2.95;;;13.80;99.90;;;;;;5023333;28;20136;-63
2023/10/30 12:17:20;;;;;;;4.22;2.92;;;13.80;99.90;;;;;;5016189;28;20133;-64
2023/10/30 12:19:52;;;;;;;4.35;3.90;;;13.80;99.90;;;;;;5016519;28;20044;-64
2023/10/30 12:22:24;;;;;;;8.27;3.88;;;13.80;99.90;;;;;;5025667;28;20387;-63
2023/10/30 12:24:57;;;;;;;6.07;3.20;;;13.80;99.90;;;;;;5016433;28;20422;-63
2023/10/30 12:27:29;;;;;;;4.53;3.38;;;13.90;99.90;;;;;;5022711;28;20042;-63
2023/10/30 12:30:15;;;;;;;6.97;3.90;;;13.90;99.90;;;;;;5019545;28;20103;-63
2023/10/30 12:32:54;;;;;;;6.15;3.92;;;14.00;99.90;;;;;;5034524;28;20051;-64
2023/10/30 12:35:26;;;;;;;4.40;3.97;;;14.00;99.90;;;;;;5026456;28;20041;-64
2023/10/30 12:37:58;;;;;;;4.68;3.78;;;14.10;99.90;;;;;;5017851;28;20410;-63
2023/10/30 12:40:30;;;;;;;4.25;3.58;;;14.00;99.90;;;;;;5020480;28;20509;-63
2023/10/30 12:43:02;;;;;;;3.88;3.40;;;14.10;99.90;;;;;;5022604;28;20128;-63
2023/10/30 12:45:38;;;;;;;6.95;3.47;;;14.10;99.90;;;;;;5019907;28;20133;-64
2023/10/30 12:48:10;;;;;;;3.50;3.15;;;14.10;99.90;;;;;;5015325;28;20052;-63
2023/10/30 12:50:42;;;;;;;5.00;3.53;;;14.20;99.90;;;;;;5018502;28;20053;-63
2023/10/30 12:53:14;;;;;;;5.38;3.55;;;14.20;99.90;;;;;;5012770;28;20045;-63
2023/10/30 12:55:46;;;;;;;5.43;3.47;;;14.20;99.90;;;;;;5030847;28;20497;-63
2023/10/30 12:58:20;;;;;;;4.72;4.22;;;14.20;99.90;;;;;;5038260;28;20057;-63
2023/10/30 13:00:52;;;;;;;6.32;4.72;;;14.20;99.90;;;;;;5024270;28;20047;-63
2023/10/30 13:03:24;;;;;;;5.85;4.45;;;14.20;99.90;;;;;;5022285;28;20052;-63
2023/10/30 13:05:55;;;;;;;6.65;4.40;;;14.20;99.90;;;;;;5018401;28;20123;-64
2023/10/30 13:08:27;;;;;;;6.22;4.28;;;14.20;99.90;;;;;;5015527;28;20046;-63
2023/10/30 13:10:59;;;;;;;7.40;5.43;;;14.20;99.90;;;;;;5021328;28;20050;-64
2023/10/30 13:13:31;;;;;;;5.10;4.15;;;14.20;99.90;;;;;;5007712;28;20503;-63
2023/10/30 13:15:58;;;;;;;6.80;4.63;;;14.30;99.90;;;;;;5020974;28;20049;-63
2023/10/30 13:18:30;;;;;;;5.43;3.33;;;14.30;99.90;;;;;;5012094;28;20114;-63